createdAt,value
2024-04-17T00:00:44.834Z,97.90
2024-04-17T00:01:44.827Z,93.57
2024-04-17T00:02:44.869Z,94.02
2024-04-17T00:03:45.108Z,95.55
2024-04-17T00:04:45.075Z,93.14
2024-04-17T00:05:45.052Z,94.55
2024-04-17T00:06:45.095Z,91.28
2024-04-17T00:07:45.206Z,94.79
2024-04-17T00:08:45.212Z,95.17
2024-04-17T00:09:45.249Z,94.68
2024-04-17T00:10:45.358Z,92.07
2024-04-17T00:11:45.396Z,93.58
2024-04-17T00:12:45.420Z,92.34
2024-04-17T00:13:45.565Z,95.04
2024-04-17T00:14:45.539Z,93.54
2024-04-17T00:15:45.589Z,93.50
2024-04-17T00:16:45.704Z,94.88
2024-04-17T00:17:45.800Z,93.36
2024-04-17T00:18:45.760Z,91.71
2024-04-17T00:19:45.832Z,91.36
2024-04-17T00:20:45.871Z,92.33
2024-04-17T00:21:45.926Z,92.84
2024-04-17T00:22:46.016Z,92.49
2024-04-17T00:23:46.031Z,92.86
2024-04-17T00:24:46.080Z,90.39
2024-04-17T00:25:46.170Z,93.56
2024-04-17T00:26:46.215Z,94.08
2024-04-17T00:27:46.250Z,89.62
2024-04-17T00:28:46.336Z,93.18
2024-04-17T00:29:46.379Z,89.84
2024-04-17T00:30:46.426Z,90.13
2024-04-17T00:31:46.535Z,88.12
2024-04-17T00:32:46.608Z,90.04
2024-04-17T00:33:46.746Z,88.59
2024-04-17T00:34:46.698Z,90.66
2024-04-17T00:35:46.699Z,89.02
2024-04-17T00:36:46.759Z,90.51
2024-04-17T00:37:46.896Z,91.00
2024-04-17T00:38:46.884Z,88.44
2024-04-17T00:39:46.921Z,89.24
2024-04-17T00:40:47.018Z,89.45
2024-04-17T00:41:47.033Z,87.93
2024-04-17T00:42:47.086Z,89.21
2024-04-17T00:43:47.206Z,89.43
2024-04-17T00:44:47.181Z,88.97
2024-04-17T00:45:47.236Z,89.77
2024-04-17T00:46:47.424Z,87.00
2024-04-17T00:47:47.472Z,88.31
2024-04-17T00:48:47.413Z,88.89
2024-04-17T00:49:47.515Z,87.95
2024-04-17T00:50:47.552Z,86.70
2024-04-17T00:51:47.590Z,88.56
2024-04-17T00:52:47.677Z,87.26
2024-04-17T00:53:47.716Z,86.32
2024-04-17T00:54:47.764Z,86.08
2024-04-17T00:55:47.936Z,86.83
2024-04-17T00:56:47.906Z,86.60
2024-04-17T00:57:47.944Z,86.87
2024-04-17T00:58:48.042Z,87.19
2024-04-17T00:59:48.050Z,88.29
2024-04-17T01:00:48.228Z,87.52
2024-04-17T01:01:48.169Z,86.56
2024-04-17T01:02:48.283Z,87.72
2024-04-17T01:03:48.306Z,88.38
2024-04-17T01:04:48.360Z,86.05
2024-04-17T01:05:48.391Z,85.79
2024-04-17T01:06:48.476Z,85.23
2024-04-17T01:07:48.567Z,85.29
2024-04-17T01:08:48.582Z,86.66
2024-04-17T01:09:48.703Z,85.89
2024-04-17T01:10:48.758Z,87.42
2024-04-17T01:11:48.772Z,84.45
2024-04-17T01:12:48.820Z,84.33
2024-04-17T01:13:49.055Z,86.62
2024-04-17T01:14:48.941Z,83.70
2024-04-17T01:15:49.006Z,85.54
2024-04-17T01:16:49.102Z,86.58
2024-04-17T01:17:49.215Z,87.20
2024-04-17T01:18:49.188Z,86.24
2024-04-17T01:19:49.279Z,84.54
2024-04-17T01:20:49.298Z,85.86
2024-04-17T01:21:49.370Z,83.70
2024-04-17T01:22:49.540Z,85.46
2024-04-17T01:23:49.480Z,83.83
2024-04-17T01:24:49.537Z,83.49
2024-04-17T01:25:49.609Z,84.39
2024-04-17T01:26:49.669Z,83.18
2024-04-17T01:27:49.715Z,84.80
2024-04-17T01:28:49.827Z,81.82
2024-04-17T01:29:49.825Z,83.25
2024-04-17T01:30:49.894Z,84.70
2024-04-17T01:31:50.005Z,82.58
2024-04-17T01:32:50.079Z,82.43
2024-04-17T01:33:50.067Z,83.63
2024-04-17T01:34:50.224Z,81.60
2024-04-17T01:35:50.219Z,84.45
2024-04-17T01:36:50.244Z,82.06
2024-04-17T01:37:50.418Z,80.23
2024-04-17T01:38:50.374Z,82.68
2024-04-17T01:39:50.425Z,83.99
2024-04-17T01:40:50.606Z,84.07
2024-04-17T01:41:50.556Z,85.02
2024-04-17T01:42:50.620Z,82.14
2024-04-17T01:43:50.701Z,82.09
2024-04-17T01:44:50.748Z,83.63
2024-04-17T01:45:50.808Z,85.52
2024-04-17T01:46:50.971Z,83.60
2024-04-17T01:47:51.021Z,82.38
2024-04-17T01:48:51.012Z,83.51
2024-04-17T01:49:51.093Z,82.93
2024-04-17T01:50:51.124Z,81.48
2024-04-17T01:51:51.193Z,81.97
2024-04-17T01:52:51.348Z,82.11
2024-04-17T01:53:51.294Z,83.56
2024-04-17T01:54:51.394Z,83.66
2024-04-17T01:55:51.449Z,81.96
2024-04-17T01:56:51.471Z,83.04
2024-04-17T01:57:51.535Z,82.46
2024-04-17T01:58:51.641Z,81.71
2024-04-17T01:59:51.651Z,83.34
2024-04-17T02:00:51.749Z,83.34
2024-04-17T02:01:51.886Z,83.49
2024-04-17T02:02:51.899Z,82.34
2024-04-17T02:03:51.930Z,82.77
2024-04-17T02:04:52.014Z,81.35
2024-04-17T02:05:52.014Z,81.88
2024-04-17T02:06:52.073Z,83.58
2024-04-17T02:07:52.281Z,82.26
2024-04-17T02:08:52.186Z,81.17
2024-04-17T02:09:52.242Z,80.72
2024-04-17T02:10:52.390Z,80.21
2024-04-17T02:11:52.373Z,79.64
2024-04-17T02:12:52.411Z,80.12
2024-04-17T02:13:52.594Z,77.85
2024-04-17T02:14:52.525Z,81.52
2024-04-17T02:15:52.585Z,81.53
2024-04-17T02:16:52.826Z,79.17
2024-04-17T02:17:52.843Z,80.74
2024-04-17T02:18:52.759Z,79.92
2024-04-17T02:19:52.896Z,80.59
2024-04-17T02:20:52.895Z,79.27
2024-04-17T02:21:52.927Z,77.91
2024-04-17T02:22:53.095Z,79.01
2024-04-17T02:23:53.054Z,79.51
2024-04-17T02:24:53.111Z,78.17
2024-04-17T02:25:53.206Z,77.95
2024-04-17T02:26:53.233Z,76.76
2024-04-17T02:27:53.290Z,76.77
2024-04-17T02:28:53.406Z,78.76
2024-04-17T02:29:53.496Z,79.22
2024-04-17T02:30:53.496Z,78.79
2024-04-17T02:31:53.560Z,77.19
2024-04-17T02:32:53.638Z,79.80
2024-04-17T02:33:53.643Z,76.76
2024-04-17T02:34:53.727Z,78.57
2024-04-17T02:35:53.737Z,78.51
2024-04-17T02:36:53.816Z,75.96
2024-04-17T02:37:53.896Z,78.92
2024-04-17T02:38:53.938Z,79.49
2024-04-17T02:39:54.043Z,76.94
2024-04-17T02:40:54.178Z,75.25
2024-04-17T02:41:54.100Z,75.68
2024-04-17T02:42:54.156Z,77.90
2024-04-17T02:43:54.347Z,75.25
2024-04-17T02:44:54.269Z,78.10
2024-04-17T02:45:54.327Z,76.45
2024-04-17T02:46:54.482Z,76.85
2024-04-17T02:47:54.508Z,76.85
2024-04-17T02:48:54.568Z,78.41
2024-04-17T02:49:54.689Z,76.83
2024-04-17T02:50:54.636Z,78.78
2024-04-17T02:51:54.678Z,76.88
2024-04-17T02:52:54.784Z,75.54
2024-04-17T02:53:54.815Z,74.92
2024-04-17T02:54:54.860Z,79.45
2024-04-17T02:55:54.990Z,76.08
2024-04-17T02:56:54.995Z,74.11
2024-04-17T02:57:55.051Z,74.60
2024-04-17T02:58:55.184Z,74.50
2024-04-17T02:59:55.155Z,76.18
2024-04-17T03:00:55.212Z,75.71
2024-04-17T03:01:55.330Z,71.68
2024-04-17T03:02:55.372Z,73.48
2024-04-17T03:03:55.466Z,75.00
2024-04-17T03:04:55.577Z,76.07
2024-04-17T03:05:55.517Z,75.79
2024-04-17T03:06:55.584Z,76.49
2024-04-17T03:07:55.667Z,75.68
2024-04-17T03:08:55.733Z,75.94
2024-04-17T03:09:55.776Z,76.60
2024-04-17T03:10:55.894Z,76.71
2024-04-17T03:11:55.984Z,74.07
2024-04-17T03:12:55.944Z,76.17
2024-04-17T03:13:56.032Z,74.08
2024-04-17T03:14:56.070Z,76.66
2024-04-17T03:15:56.118Z,76.49
2024-04-17T03:16:56.305Z,73.86
2024-04-17T03:17:56.348Z,73.82
2024-04-17T03:18:56.294Z,72.33
2024-04-17T03:19:56.481Z,75.88
2024-04-17T03:20:56.423Z,74.30
2024-04-17T03:21:56.489Z,71.39
2024-04-17T03:22:56.621Z,74.30
2024-04-17T03:23:56.611Z,72.84
2024-04-17T03:24:56.683Z,73.20
2024-04-17T03:25:56.757Z,72.54
2024-04-17T03:26:56.826Z,74.53
2024-04-17T03:27:59.180Z,76.40
2024-04-17T03:28:56.944Z,73.52
2024-04-17T03:29:56.898Z,74.24
2024-04-17T03:30:56.910Z,73.15
2024-04-17T03:31:56.980Z,72.87
2024-04-17T03:32:56.990Z,74.66
2024-04-17T03:33:56.948Z,73.14
2024-04-17T03:34:56.997Z,74.34
2024-04-17T03:35:56.967Z,75.29
2024-04-17T03:36:56.982Z,74.41
2024-04-17T03:37:57.005Z,70.60
2024-04-17T03:38:57.006Z,74.89
2024-04-17T03:39:57.043Z,72.02
2024-04-17T03:40:57.176Z,73.37
2024-04-17T03:41:57.039Z,71.99
2024-04-17T03:42:57.080Z,73.83
2024-04-17T03:43:57.160Z,72.05
2024-04-17T03:44:57.057Z,70.60
2024-04-17T03:45:57.081Z,72.13
2024-04-17T03:46:57.330Z,71.30
2024-04-17T03:47:57.166Z,70.10
2024-04-17T03:48:57.094Z,73.75
2024-04-17T03:49:57.126Z,72.84
2024-04-17T03:50:57.117Z,70.56
2024-04-17T03:51:57.142Z,71.70
2024-04-17T03:52:57.158Z,69.43
2024-04-17T03:53:57.158Z,72.36
2024-04-17T03:54:57.167Z,69.12
2024-04-17T03:55:57.246Z,69.78
2024-04-17T03:56:57.196Z,70.73
2024-04-17T03:57:58.564Z,70.31
2024-04-17T03:58:57.307Z,69.98
2024-04-17T03:59:57.241Z,69.36
2024-04-17T04:00:57.242Z,70.41
2024-04-17T04:01:57.460Z,72.12
2024-04-17T04:02:57.364Z,69.67
2024-04-17T04:03:57.307Z,69.27
2024-04-17T04:04:57.330Z,69.41
2024-04-17T04:05:57.313Z,69.53
2024-04-17T04:06:57.366Z,68.83
2024-04-17T04:07:57.653Z,68.47
2024-04-17T04:08:57.469Z,69.26
2024-04-17T04:09:57.547Z,71.17
2024-04-17T04:10:57.731Z,70.05
2024-04-17T04:11:57.697Z,71.12
2024-04-17T04:12:57.729Z,71.57
2024-04-17T04:13:57.797Z,70.00
2024-04-17T04:14:57.839Z,67.84
2024-04-17T04:15:57.908Z,69.55
2024-04-17T04:16:58.024Z,70.79
2024-04-17T04:17:58.068Z,70.31
2024-04-17T04:18:58.065Z,69.94
2024-04-17T04:19:58.186Z,68.06
2024-04-17T04:20:58.196Z,70.01
2024-04-17T04:21:58.267Z,69.25
2024-04-17T04:22:58.376Z,67.80
2024-04-17T04:23:58.382Z,66.23
2024-04-17T04:24:58.440Z,68.25
2024-04-17T04:25:58.608Z,70.60
2024-04-17T04:26:58.571Z,68.53
2024-04-17T04:27:58.643Z,66.96
2024-04-17T04:28:58.730Z,67.57
2024-04-17T04:29:58.756Z,69.25
2024-04-17T04:31:05.999Z,50.00
2024-04-17T04:32:06.021Z,50.00
2024-04-17T04:33:06.121Z,50.00
2024-04-17T04:34:06.042Z,50.00
2024-04-17T04:35:06.084Z,50.00
2024-04-17T04:36:06.066Z,50.63
2024-04-17T04:37:06.093Z,53.42
2024-04-17T04:38:06.126Z,52.51
2024-04-17T04:39:06.194Z,53.40
2024-04-17T04:40:06.143Z,51.96
2024-04-17T04:41:06.267Z,50.98
2024-04-17T04:42:06.175Z,54.33
2024-04-17T04:43:06.210Z,50.25
2024-04-17T04:44:06.291Z,51.20
2024-04-17T04:45:06.219Z,52.38
2024-04-17T04:46:06.228Z,52.97
2024-04-17T04:47:06.270Z,54.33
2024-04-17T04:48:09.802Z,54.22
2024-04-17T04:49:07.265Z,54.34
2024-04-17T04:50:06.298Z,54.29
2024-04-17T04:51:06.277Z,53.91
2024-04-17T04:52:06.306Z,50.73
2024-04-17T04:53:06.306Z,54.09
2024-04-17T04:54:06.335Z,51.56
2024-04-17T04:55:06.332Z,52.96
2024-04-17T04:56:06.382Z,51.00
2024-04-17T04:57:06.375Z,52.21
2024-04-17T04:58:06.372Z,50.84
2024-04-17T04:59:06.382Z,51.28
2024-04-17T05:00:06.396Z,54.12
2024-04-17T05:01:08.773Z,51.32
2024-04-17T05:02:06.743Z,53.89
2024-04-17T05:03:06.784Z,52.69
2024-04-17T05:04:06.799Z,52.74
2024-04-17T05:05:06.925Z,53.67
2024-04-17T05:06:06.892Z,56.80
2024-04-17T05:07:06.951Z,54.13
2024-04-17T05:08:07.066Z,54.22
2024-04-17T05:09:07.082Z,56.44
2024-04-17T05:10:07.135Z,56.37
2024-04-17T05:11:07.272Z,61.17
2024-04-17T05:12:07.259Z,58.85
2024-04-17T05:13:07.323Z,57.15
2024-04-17T05:14:07.378Z,61.21
2024-04-17T05:15:07.443Z,60.32
2024-04-17T05:16:10.548Z,62.53
2024-04-17T05:17:07.650Z,63.93
2024-04-17T05:18:07.638Z,66.49
2024-04-17T05:19:07.567Z,68.30
2024-04-17T05:20:07.599Z,70.88
2024-04-17T05:21:07.612Z,74.23
2024-04-17T05:22:07.637Z,76.78
2024-04-17T05:23:07.740Z,77.59
2024-04-17T05:24:07.690Z,78.40
2024-04-17T05:25:07.703Z,77.54
2024-04-17T05:26:07.727Z,82.55
2024-04-17T05:27:07.742Z,78.07
2024-04-17T05:28:07.777Z,76.50
2024-04-17T05:29:07.791Z,76.51
2024-04-17T05:30:07.816Z,79.45
2024-04-17T05:31:07.833Z,81.04
2024-04-17T05:32:07.873Z,79.43
2024-04-17T05:33:08.074Z,77.68
2024-04-17T05:34:07.956Z,73.01
2024-04-17T05:35:07.960Z,65.54
2024-04-17T05:36:08.001Z,64.48
2024-04-17T05:37:08.008Z,58.63
2024-04-17T05:38:11.186Z,54.34
2024-04-17T05:39:08.046Z,52.96
2024-04-17T05:40:08.087Z,53.23
2024-04-17T05:41:08.102Z,52.66
2024-04-17T05:42:08.107Z,50.92
2024-04-17T05:43:08.141Z,51.71
2024-04-17T05:44:08.151Z,53.26
2024-04-17T05:45:08.155Z,54.10
2024-04-17T05:46:08.190Z,55.36
2024-04-17T05:47:08.365Z,55.78
2024-04-17T05:48:08.274Z,56.91
2024-04-17T05:49:08.225Z,64.06
2024-04-17T05:50:09.282Z,67.27
2024-04-17T05:51:08.222Z,68.31
2024-04-17T05:52:08.250Z,70.67
2024-04-17T05:53:08.256Z,74.42
2024-04-17T05:54:08.247Z,72.45
2024-04-17T05:55:08.263Z,74.68
2024-04-17T05:56:08.297Z,77.73
2024-04-17T05:57:08.306Z,78.66
2024-04-17T05:58:08.322Z,78.63
2024-04-17T05:59:08.297Z,77.16
2024-04-17T06:00:08.319Z,82.57
2024-04-17T06:01:08.380Z,81.82
2024-04-17T06:02:09.116Z,81.47
2024-04-17T06:03:08.405Z,87.63
2024-04-17T06:04:08.384Z,86.91
2024-04-17T06:05:08.411Z,88.43
2024-04-17T06:06:08.378Z,87.81
2024-04-17T06:07:08.387Z,91.30
2024-04-17T06:08:08.462Z,86.88
2024-04-17T06:09:08.408Z,89.01
2024-04-17T06:10:08.524Z,90.29
2024-04-17T06:11:08.634Z,88.89
2024-04-17T06:12:08.740Z,89.85
2024-04-17T06:13:08.756Z,90.06
2024-04-17T06:14:09.635Z,91.27
2024-04-17T06:15:08.831Z,89.76
2024-04-17T06:16:08.892Z,87.94
2024-04-17T06:17:09.009Z,87.36
2024-04-17T06:18:09.077Z,89.16
2024-04-17T06:19:09.094Z,86.58
2024-04-17T06:20:09.177Z,87.35
2024-04-17T06:21:09.296Z,86.26
2024-04-17T06:22:09.321Z,82.72
2024-04-17T06:23:09.446Z,83.90
2024-04-17T06:24:10.075Z,87.16
2024-04-17T06:25:09.552Z,90.80
2024-04-17T06:26:09.633Z,92.61
2024-04-17T06:27:09.703Z,92.75
2024-04-17T06:28:09.798Z,96.61
2024-04-17T06:29:10.578Z,92.02
2024-04-17T06:30:11.461Z,91.28
2024-04-17T06:31:10.083Z,91.81
2024-04-17T06:32:10.342Z,90.14
2024-04-17T06:33:10.247Z,87.51
2024-04-17T06:34:10.286Z,88.18
2024-04-17T06:35:10.358Z,86.67
2024-04-17T06:36:10.457Z,81.65
2024-04-17T06:37:10.494Z,81.53
2024-04-17T06:38:10.626Z,80.81
2024-04-17T06:39:10.628Z,76.45
2024-04-17T06:40:10.738Z,78.18
2024-04-17T06:41:13.746Z,76.72
2024-04-17T06:42:10.798Z,76.30
2024-04-17T06:43:10.804Z,72.78
2024-04-17T06:44:10.809Z,72.98
2024-04-17T06:45:10.816Z,70.88
2024-04-17T06:46:10.834Z,70.62
2024-04-17T06:47:10.966Z,70.00
2024-04-17T06:48:10.933Z,69.66
2024-04-17T06:49:10.867Z,68.18
2024-04-17T06:50:10.914Z,66.29
2024-04-17T06:51:10.923Z,67.10
2024-04-17T06:52:10.895Z,66.56
2024-04-17T06:53:10.907Z,64.66
2024-04-17T06:54:10.912Z,63.79
2024-04-17T06:55:10.940Z,63.76
2024-04-17T06:56:12.621Z,61.00
2024-04-17T06:57:10.940Z,63.52
2024-04-17T06:58:10.965Z,61.57
2024-04-17T06:59:10.964Z,60.25
2024-04-17T07:00:10.987Z,62.05
2024-04-17T07:01:11.069Z,63.03
2024-04-17T07:02:11.134Z,61.67
2024-04-17T07:03:11.114Z,60.54
2024-04-17T07:04:11.108Z,60.43
2024-04-17T07:05:11.095Z,60.81
2024-04-17T07:06:11.078Z,61.79
2024-04-17T07:07:11.089Z,62.43
2024-04-17T07:08:11.089Z,61.23
2024-04-17T07:09:11.092Z,59.41
2024-04-17T07:10:11.188Z,60.70
2024-04-17T07:11:11.488Z,61.93
2024-04-17T07:12:11.361Z,62.67
2024-04-17T07:13:11.392Z,66.29
2024-04-17T07:14:11.447Z,72.51
2024-04-17T07:15:11.539Z,78.20
2024-04-17T07:16:11.605Z,81.77
2024-04-17T07:17:11.707Z,85.59
2024-04-17T07:18:11.851Z,84.71
2024-04-17T07:19:11.927Z,84.02
2024-04-17T07:20:11.951Z,81.98
2024-04-17T07:21:12.013Z,92.57
2024-04-17T07:22:12.068Z,103.61
2024-04-17T07:23:12.152Z,112.35
2024-04-17T07:24:12.248Z,115.80
2024-04-17T07:25:14.943Z,121.08
2024-04-17T07:26:12.304Z,120.49
2024-04-17T07:27:12.297Z,119.92
2024-04-17T07:28:12.314Z,121.04
2024-04-17T07:29:12.322Z,118.09
2024-04-17T07:30:12.343Z,115.69
2024-04-17T07:31:12.345Z,113.83
2024-04-17T07:32:12.493Z,115.50
2024-04-17T07:33:12.389Z,114.83
2024-04-17T07:34:12.379Z,111.47
2024-04-17T07:35:12.418Z,111.85
2024-04-17T07:36:12.498Z,109.68
2024-04-17T07:37:12.407Z,110.65
2024-04-17T07:38:12.420Z,109.76
2024-04-17T07:39:12.425Z,109.07
2024-04-17T07:40:12.453Z,107.48
2024-04-17T07:41:13.928Z,105.60
2024-04-17T07:42:13.165Z,106.34
2024-04-17T07:43:12.548Z,104.29
2024-04-17T07:44:13.224Z,105.62
2024-04-17T07:45:12.497Z,103.36
2024-04-17T07:46:12.570Z,103.15
2024-04-17T07:47:12.568Z,101.45
2024-04-17T07:48:12.619Z,102.14
2024-04-17T07:49:13.236Z,98.38
2024-04-17T07:50:12.574Z,100.64
2024-04-17T07:51:12.602Z,100.79
2024-04-17T07:52:12.585Z,99.19
2024-04-17T07:53:13.211Z,102.51
2024-04-17T07:54:12.638Z,100.04
2024-04-17T07:55:12.642Z,100.16
2024-04-17T07:56:12.680Z,101.66
2024-04-17T07:57:12.659Z,99.70
2024-04-17T07:58:12.668Z,102.10
2024-04-17T07:59:12.670Z,101.65
2024-04-17T08:00:12.688Z,101.76
2024-04-17T08:01:13.636Z,102.54
2024-04-17T08:02:12.766Z,103.73
2024-04-17T08:03:12.729Z,106.04
2024-04-17T08:04:12.804Z,110.22
2024-04-17T08:05:12.720Z,111.36
2024-04-17T08:06:12.757Z,111.66
2024-04-17T08:07:12.734Z,110.42
2024-04-17T08:08:12.730Z,109.23
2024-04-17T08:09:12.747Z,108.34
2024-04-17T08:10:12.790Z,106.72
2024-04-17T08:11:12.917Z,111.95
2024-04-17T08:12:12.897Z,113.70
2024-04-17T08:13:13.305Z,119.21
2024-04-17T08:14:12.984Z,125.47
2024-04-17T08:15:13.110Z,124.55
2024-04-17T08:16:13.149Z,117.77
2024-04-17T08:17:13.344Z,108.04
2024-04-17T08:18:13.710Z,96.65
2024-04-17T08:19:13.521Z,82.42
2024-04-17T08:20:13.785Z,71.75
2024-04-17T08:21:13.752Z,67.29
2024-04-17T08:22:13.878Z,53.72
2024-04-17T08:23:14.010Z,50.13
2024-04-17T08:24:14.131Z,51.35
2024-04-17T08:25:14.282Z,49.08
2024-04-17T08:26:14.403Z,50.00
2024-04-17T08:27:14.429Z,49.45
2024-04-17T08:28:14.549Z,50.00
2024-04-17T08:29:14.582Z,50.94
2024-04-17T08:30:15.688Z,44.25
2024-04-17T08:31:14.688Z,39.64
2024-04-17T08:32:14.725Z,40.85
2024-04-17T08:33:14.932Z,39.49
2024-04-17T08:34:15.729Z,38.90
2024-04-17T08:35:14.991Z,51.73
2024-04-17T08:36:14.969Z,54.88
2024-04-17T08:37:14.987Z,61.90
2024-04-17T08:38:15.040Z,60.65
2024-04-17T08:39:14.989Z,63.23
2024-04-17T08:40:15.017Z,69.28
2024-04-17T08:41:15.072Z,78.21
2024-04-17T08:42:15.063Z,87.46
2024-04-17T08:43:15.117Z,91.60
2024-04-17T08:44:15.327Z,95.14
2024-04-17T08:45:15.280Z,99.13
2024-04-17T08:46:15.525Z,106.73
2024-04-17T08:47:15.599Z,113.29
2024-04-17T08:48:15.552Z,119.47
2024-04-17T08:49:15.575Z,126.67
2024-04-17T08:50:15.659Z,134.01
2024-04-17T08:51:15.713Z,135.62
2024-04-17T08:52:16.664Z,140.53
2024-04-17T08:53:15.845Z,142.56
2024-04-17T08:54:15.929Z,145.70
2024-04-17T08:55:16.034Z,152.62
2024-04-17T08:56:16.083Z,156.06
2024-04-17T08:57:16.167Z,158.36
2024-04-17T08:58:16.229Z,160.82
2024-04-17T08:59:16.303Z,160.48
2024-04-17T09:00:16.380Z,161.09
2024-04-17T09:01:16.485Z,166.28
2024-04-17T09:02:16.659Z,171.20
2024-04-17T09:03:16.629Z,175.49
2024-04-17T09:04:16.698Z,176.66
2024-04-17T09:05:16.749Z,179.09
2024-04-17T09:06:16.831Z,179.88
2024-04-17T09:07:16.911Z,178.73
2024-04-17T09:08:16.980Z,175.92
2024-04-17T09:09:17.066Z,178.66
2024-04-17T09:10:17.128Z,181.17
2024-04-17T09:11:17.259Z,177.33
2024-04-17T09:12:17.275Z,181.57
2024-04-17T09:13:17.346Z,184.77
2024-04-17T09:14:17.411Z,184.80
2024-04-17T09:15:17.527Z,182.90
2024-04-17T09:16:17.589Z,188.21
2024-04-17T09:17:17.853Z,194.13
2024-04-17T09:18:17.862Z,194.30
2024-04-17T09:19:17.712Z,195.38
2024-04-17T09:20:17.749Z,196.01
2024-04-17T09:21:17.799Z,196.45
2024-04-17T09:22:18.769Z,190.15
2024-04-17T09:23:17.896Z,180.68
2024-04-17T09:24:17.958Z,164.25
2024-04-17T09:25:17.993Z,146.76
2024-04-17T09:26:18.040Z,136.21
2024-04-17T09:27:18.077Z,123.21
2024-04-17T09:28:18.115Z,120.60
2024-04-17T09:29:18.159Z,119.05
2024-04-17T09:30:18.172Z,116.90
2024-04-17T09:31:18.774Z,117.44
2024-04-17T09:32:18.363Z,121.48
2024-04-17T09:33:19.277Z,129.32
2024-04-17T09:34:18.501Z,134.34
2024-04-17T09:35:19.219Z,140.19
2024-04-17T09:36:18.657Z,148.28
2024-04-17T09:37:18.744Z,153.97
2024-04-17T09:38:18.819Z,162.73
2024-04-17T09:39:18.913Z,168.65
2024-04-17T09:40:18.960Z,173.89
2024-04-17T09:41:19.022Z,178.89
2024-04-17T09:42:19.112Z,185.58
2024-04-17T09:43:22.664Z,192.46
2024-04-17T09:44:19.226Z,192.59
2024-04-17T09:45:19.243Z,193.56
2024-04-17T09:46:19.441Z,195.96
2024-04-17T09:47:19.338Z,200.51
2024-04-17T09:48:19.278Z,204.21
2024-04-17T09:49:19.299Z,199.48
2024-04-17T09:50:19.504Z,200.00
2024-04-17T09:51:19.330Z,200.00
2024-04-17T09:52:19.363Z,199.14
2024-04-17T09:53:28.053Z,200.00
2024-04-17T09:54:20.407Z,200.12
2024-04-17T09:55:19.373Z,200.48
2024-04-17T09:56:19.393Z,200.89
2024-04-17T09:57:19.415Z,203.62
2024-04-17T09:58:19.418Z,208.39
2024-04-17T09:59:19.429Z,199.71
2024-04-17T10:00:20.211Z,198.82
2024-04-17T10:01:19.453Z,200.00
2024-04-17T10:02:19.595Z,197.93
2024-04-17T10:03:19.527Z,199.28
2024-04-17T10:04:20.327Z,198.43
2024-04-17T10:05:19.536Z,198.27
2024-04-17T10:06:19.568Z,199.18
2024-04-17T10:07:19.611Z,196.50
2024-04-17T10:08:19.688Z,195.38
2024-04-17T10:09:19.688Z,194.55
2024-04-17T10:10:19.736Z,193.46
2024-04-17T10:11:19.812Z,195.36
2024-04-17T10:12:19.833Z,194.68
2024-04-17T10:13:19.875Z,195.13
2024-04-17T10:14:19.901Z,196.17
2024-04-17T10:15:19.959Z,197.04
2024-04-17T10:16:19.998Z,198.59
2024-04-17T10:17:30.488Z,197.80
2024-04-17T10:18:21.157Z,197.96
2024-04-17T10:19:20.071Z,198.02
2024-04-17T10:20:20.108Z,198.87
2024-04-17T10:21:20.118Z,198.34
2024-04-17T10:22:20.141Z,197.24
2024-04-17T10:23:20.192Z,194.52
2024-04-17T10:24:20.194Z,194.18
2024-04-17T10:25:27.631Z,196.66
2024-04-17T10:26:21.288Z,196.70
2024-04-17T10:27:20.252Z,197.01
2024-04-17T10:28:20.321Z,198.77
2024-04-17T10:29:20.355Z,201.78
2024-04-17T10:30:20.339Z,205.54
2024-04-17T10:31:20.330Z,199.99
2024-04-17T10:32:20.395Z,199.26
2024-04-17T10:33:20.478Z,199.34
2024-04-17T10:34:20.401Z,199.17
2024-04-17T10:35:20.451Z,197.48
2024-04-17T10:36:20.530Z,196.04
2024-04-17T10:37:20.640Z,194.82
2024-04-17T10:38:30.217Z,192.78
2024-04-17T10:39:20.722Z,192.79
2024-04-17T10:40:20.752Z,192.07
2024-04-17T10:41:20.773Z,192.78
2024-04-17T10:42:20.810Z,192.72
2024-04-17T10:43:20.823Z,194.39
2024-04-17T10:44:20.858Z,194.00
2024-04-17T10:45:20.992Z,199.11
2024-04-17T10:46:20.933Z,199.20
2024-04-17T10:47:20.915Z,196.04
2024-04-17T10:48:21.057Z,194.74
2024-04-17T10:49:21.071Z,195.32
2024-04-17T10:50:21.162Z,196.38
2024-04-17T10:51:21.349Z,199.09
2024-04-17T10:52:21.327Z,197.51
2024-04-17T10:53:21.392Z,199.41
2024-04-17T10:54:21.503Z,196.16
2024-04-17T10:55:21.558Z,195.37
2024-04-17T10:56:21.640Z,192.75
2024-04-17T10:57:21.730Z,188.84
2024-04-17T10:58:21.809Z,187.07
2024-04-17T10:59:21.898Z,184.56
2024-04-17T11:00:21.990Z,183.35
2024-04-17T11:01:22.090Z,182.77
2024-04-17T11:02:22.166Z,183.55
2024-04-17T11:03:22.339Z,183.25
2024-04-17T11:04:22.520Z,183.02
2024-04-17T11:05:22.500Z,184.91
2024-04-17T11:06:22.511Z,188.85
2024-04-17T11:07:22.565Z,187.86
2024-04-17T11:08:22.642Z,187.04
2024-04-17T11:09:22.688Z,183.99
2024-04-17T11:10:22.772Z,185.45
2024-04-17T11:11:23.875Z,184.23
2024-04-17T11:12:22.952Z,187.21
2024-04-17T11:13:23.046Z,185.18
2024-04-17T11:14:23.116Z,186.69
2024-04-17T11:15:23.209Z,185.96
2024-04-17T11:16:23.255Z,189.18
2024-04-17T11:17:23.460Z,192.54
2024-04-17T11:18:23.498Z,196.18
2024-04-17T11:19:23.482Z,195.51
2024-04-17T11:20:23.561Z,199.86
2024-04-17T11:21:23.657Z,199.61
2024-04-17T11:22:23.717Z,199.57
2024-04-17T11:23:23.800Z,200.00
2024-04-17T11:24:23.890Z,199.68
2024-04-17T11:25:23.971Z,199.86
2024-04-17T11:26:24.051Z,199.86
2024-04-17T11:27:24.143Z,198.50
2024-04-17T11:28:24.225Z,199.90
2024-04-17T11:29:33.365Z,197.50
2024-04-17T11:30:25.334Z,197.56
2024-04-17T11:31:24.368Z,197.70
2024-04-17T11:32:24.385Z,198.20
2024-04-17T11:33:24.555Z,198.75
2024-04-17T11:34:24.430Z,199.90
2024-04-17T11:35:24.431Z,198.92
2024-04-17T11:36:24.456Z,198.59
2024-04-17T11:37:24.465Z,198.89
2024-04-17T11:38:24.559Z,199.18
2024-04-17T11:39:24.524Z,197.87
2024-04-17T11:40:25.450Z,198.16
2024-04-17T11:41:24.608Z,199.00
2024-04-17T11:42:24.657Z,199.35
2024-04-17T11:43:24.724Z,199.50
2024-04-17T11:44:24.792Z,197.34
2024-04-17T11:45:24.859Z,198.65
2024-04-17T11:46:24.943Z,197.66
2024-04-17T11:47:25.069Z,199.77
2024-04-17T11:48:25.265Z,198.83
2024-04-17T11:49:25.419Z,198.77
2024-04-17T11:50:25.263Z,198.82
2024-04-17T11:51:25.327Z,198.30
2024-04-17T11:52:25.396Z,198.54
2024-04-17T11:53:25.469Z,200.00
2024-04-17T11:54:25.546Z,198.98
2024-04-17T11:55:25.663Z,199.18
2024-04-17T11:56:25.684Z,198.77
2024-04-17T11:57:25.774Z,195.85
2024-04-17T11:58:25.898Z,192.74
2024-04-17T11:59:25.920Z,193.04
2024-04-17T12:00:25.987Z,188.12
2024-04-17T12:01:26.084Z,188.20
2024-04-17T12:02:26.146Z,185.41
2024-04-17T12:03:26.361Z,183.82
2024-04-17T12:04:26.394Z,179.84
2024-04-17T12:05:26.467Z,178.14
2024-04-17T12:06:26.506Z,175.78
2024-04-17T12:07:26.595Z,174.57
2024-04-17T12:08:26.616Z,172.71
2024-04-17T12:09:26.690Z,174.87
2024-04-17T12:10:26.802Z,174.33
2024-04-17T12:11:26.926Z,175.34
2024-04-17T12:12:26.897Z,175.80
2024-04-17T12:13:27.006Z,176.97
2024-04-17T12:14:27.057Z,179.84
2024-04-17T12:15:27.143Z,180.74
2024-04-17T12:16:27.341Z,180.32
2024-04-17T12:17:27.272Z,178.66
2024-04-17T12:18:27.365Z,178.79
2024-04-17T12:19:27.508Z,166.64
2024-04-17T12:20:27.555Z,166.93
2024-04-17T12:21:27.628Z,169.21
2024-04-17T12:22:27.798Z,172.77
2024-04-17T12:23:27.788Z,175.77
2024-04-17T12:24:27.852Z,177.68
2024-04-17T12:25:28.029Z,177.10
2024-04-17T12:26:28.038Z,178.91
2024-04-17T12:27:28.110Z,180.64
2024-04-17T12:28:28.235Z,179.23
2024-04-17T12:29:28.283Z,177.98
2024-04-17T12:30:28.366Z,179.92
2024-04-17T12:31:28.493Z,181.58
2024-04-17T12:32:28.549Z,182.45
2024-04-17T12:33:28.698Z,180.06
2024-04-17T12:34:28.754Z,180.05
2024-04-17T12:35:28.784Z,181.46
2024-04-17T12:36:28.870Z,180.11
2024-04-17T12:37:28.964Z,181.55
2024-04-17T12:38:29.018Z,178.50
2024-04-17T12:39:29.112Z,177.77
2024-04-17T12:40:29.228Z,175.79
2024-04-17T12:41:29.263Z,177.89
2024-04-17T12:42:29.338Z,176.11
2024-04-17T12:43:29.442Z,175.54
2024-04-17T12:44:29.493Z,176.11